Lower Ranchito, New Mexico
Current Conditions -  °F | °C
As of 9:15 PM on Wednesday 26 Nov 2014 (Local Time) from KSKX Reporting Station
Clear Clear  
Wind Chill: 22°   Ceiling: Unl
Heat Index: 28°   Visibility: 10mi
Dew Point: 21°   Wind: 6mph
Humidity: 74%   Direction: 30°NNE
Pressure: 30.44"   Gusts: NA
Location:  36.6959°N, 106.135°W
Report Text: KSKX 270415Z AUTO 03005KT 10SM CLR M02/M06 A3044 RMK AO1
Loading
Personal Weather Stations






























Interactive Weather Map New forecast layout! Learn more

10-Day Weather Forecast

Advertisements
Track Severe Weather on mobile